createdAt,value
2022-10-06T00:01:19.083Z,67.29
2022-10-06T00:11:22.470Z,68.14
2022-10-06T00:21:24.941Z,68.91
2022-10-06T00:31:27.096Z,70.47
2022-10-06T00:41:29.293Z,72.17
2022-10-06T00:51:32.542Z,75.15
2022-10-06T01:01:35.776Z,77.66
2022-10-06T01:11:39.096Z,78.43
2022-10-06T01:21:48.834Z,77.82
2022-10-06T01:31:50.955Z,77.99
2022-10-06T01:41:53.500Z,79.58
2022-10-06T01:51:55.599Z,80.36
2022-10-06T02:01:57.709Z,81.52
2022-10-06T02:11:59.846Z,82.22
2022-10-06T02:22:02.537Z,81.08
2022-10-06T02:32:05.308Z,82.73
2022-10-06T02:42:07.525Z,85.66
2022-10-06T02:52:09.595Z,86.10
2022-10-06T03:02:11.811Z,85.68
2022-10-06T03:12:13.993Z,86.52
2022-10-06T03:22:16.149Z,82.80
2022-10-06T03:32:18.249Z,82.99
2022-10-06T03:42:20.361Z,85.10
2022-10-06T03:52:25.877Z,87.75
2022-10-06T04:02:28.367Z,84.41
2022-10-06T04:12:30.486Z,81.54
2022-10-06T04:22:32.562Z,79.62
2022-10-06T04:32:34.691Z,78.88
2022-10-06T04:42:37.269Z,77.82
2022-10-06T04:52:39.356Z,76.48
2022-10-06T05:02:41.765Z,75.41
2022-10-06T05:12:43.914Z,75.19
2022-10-06T05:22:45.993Z,75.69
2022-10-06T05:32:50.549Z,75.63
2022-10-06T05:42:55.491Z,74.96
2022-10-06T05:52:57.637Z,75.17
2022-10-06T06:02:59.831Z,74.95
2022-10-06T06:13:01.899Z,74.59
2022-10-06T06:23:04.007Z,76.10
2022-10-06T06:33:06.070Z,75.08
2022-10-06T06:43:08.164Z,73.48
2022-10-06T06:53:15.486Z,72.68
2022-10-06T07:03:38.410Z,70.65
2022-10-06T07:13:42.718Z,68.92
2022-10-06T07:24:05.107Z,66.92
2022-10-06T07:34:08.290Z,64.20
2022-10-06T07:44:10.420Z,63.95
2022-10-06T07:54:12.560Z,62.56
2022-10-06T08:04:14.806Z,61.46
2022-10-06T08:14:16.974Z,61.24
2022-10-06T08:24:19.889Z,62.24
2022-10-06T08:34:21.962Z,63.34
2022-10-06T08:44:43.016Z,66.44
2022-10-06T08:55:09.360Z,68.84
2022-10-06T09:05:25.406Z,70.46
2022-10-06T09:15:38.297Z,70.54
2022-10-06T09:25:41.198Z,70.54
2022-10-06T09:36:06.446Z,70.14
2022-10-06T09:46:29.407Z,67.93
2022-10-06T09:56:32.679Z,66.56
2022-10-06T10:06:35.298Z,66.08
2022-10-06T10:16:37.656Z,67.94
2022-10-06T10:27:06.004Z,65.71
2022-10-06T10:37:18.786Z,64.83
2022-10-06T10:47:28.257Z,59.71
2022-10-06T10:57:37.513Z,57.79
2022-10-06T11:07:50.508Z,56.38
2022-10-06T11:18:01.243Z,54.87
2022-10-06T11:28:14.787Z,54.16
2022-10-06T11:38:30.384Z,53.75
2022-10-06T11:48:33.293Z,55.00
2022-10-06T11:59:08.769Z,53.50
2022-10-06T12:09:31.180Z,48.82
2022-10-06T12:19:59.653Z,49.85
2022-10-06T12:30:06.360Z,47.90
2022-10-06T12:40:47.175Z,49.17
2022-10-06T12:50:55.036Z,48.73
2022-10-06T13:01:02.878Z,49.50
2022-10-06T13:11:28.356Z,49.86
2022-10-06T13:21:30.728Z,50.63
2022-10-06T13:31:35.573Z,51.18
2022-10-06T13:41:47.512Z,50.72
2022-10-06T13:51:54.612Z,51.92
2022-10-06T14:01:58.901Z,52.43
2022-10-06T14:12:08.006Z,52.85
2022-10-06T14:22:34.531Z,53.53
2022-10-06T14:32:38.850Z,55.19
2022-10-06T14:42:40.990Z,53.26
2022-10-06T14:52:43.144Z,57.37
2022-10-06T15:02:45.358Z,58.67
2022-10-06T15:12:47.678Z,59.76
2022-10-06T15:22:49.786Z,63.53
2022-10-06T15:32:51.940Z,66.22
2022-10-06T15:42:54.016Z,66.54
2022-10-06T15:52:56.196Z,70.02
2022-10-06T16:02:58.456Z,69.95
2022-10-06T16:13:00.651Z,69.98
2022-10-06T16:23:02.735Z,71.81
2022-10-06T16:33:04.852Z,72.85
2022-10-06T16:43:06.994Z,72.98
2022-10-06T16:53:12.376Z,74.90
2022-10-06T17:03:16.817Z,74.73
2022-10-06T17:13:19.017Z,78.10
2022-10-06T17:23:21.152Z,77.92
2022-10-06T17:33:23.309Z,78.43
2022-10-06T17:43:25.428Z,77.96
2022-10-06T17:53:27.846Z,78.47
2022-10-06T18:03:30.288Z,77.30
2022-10-06T18:13:32.400Z,77.42
2022-10-06T18:23:36.350Z,79.63
2022-10-06T18:36:10.469Z,80.83
2022-10-06T18:44:00.720Z,80.91
2022-10-06T18:54:08.650Z,80.09
2022-10-06T19:04:15.268Z,80.20
2022-10-06T19:14:43.010Z,79.42
2022-10-06T19:24:46.214Z,78.85
2022-10-06T19:34:48.735Z,78.20
2022-10-06T19:44:50.880Z,78.25
2022-10-06T19:54:53.067Z,77.63
2022-10-06T20:04:55.290Z,76.75
2022-10-06T20:14:57.693Z,77.04
2022-10-06T20:25:02.077Z,77.51
2022-10-06T20:40:30.564Z,78.08
2022-10-06T20:50:32.705Z,78.29
2022-10-06T21:00:35.000Z,77.88
2022-10-06T21:10:37.163Z,77.90
2022-10-06T21:20:43.114Z,80.35
2022-10-06T21:30:47.342Z,80.88
2022-10-06T21:40:49.557Z,79.70
2022-10-06T21:50:53.627Z,80.33
2022-10-06T22:00:58.164Z,81.91
2022-10-06T22:11:11.707Z,80.28
2022-10-06T22:21:19.477Z,80.64
2022-10-06T22:31:26.070Z,79.83
2022-10-06T22:41:29.053Z,79.45
2022-10-06T22:51:31.480Z,80.13
2022-10-06T23:01:33.649Z,80.43
2022-10-06T23:11:35.844Z,80.96
2022-10-06T23:21:40.485Z,79.72
2022-10-06T23:31:42.699Z,80.66
2022-10-06T23:41:44.936Z,80.93
2022-10-06T23:51:47.126Z,80.74
